Time;durP1;ratioP1;P1;durP2;ratioP2;P2;SDS_P1;SDS_P2;PMS_P1;PMS_P2;Temp;Humidity;BMP_temperature;BMP_pressure;BME280_temperature;BME280_humidity;BME280_pressure;Samples;Min_cycle;Max_cycle;Signal;HPM_P1;HPM_P2
2023/07/07 00:01:20;;;;;;;2.17;2.17;;;23.50;67.00;;;;;;5068569;28;43483;-75
2023/07/07 00:03:48;;;;;;;2.47;2.47;;;23.30;67.20;;;;;;5069897;28;43420;-74
2023/07/07 00:06:16;;;;;;;2.30;2.30;;;23.20;67.60;;;;;;5066736;28;43956;-74
2023/07/07 00:08:44;;;;;;;2.20;2.20;;;23.10;68.10;;;;;;5067665;28;44781;-73
2023/07/07 00:11:12;;;;;;;2.37;2.37;;;23.10;68.40;;;;;;5068902;28;43367;-76
2023/07/07 00:13:40;;;;;;;2.20;2.20;;;23.00;68.50;;;;;;5068789;28;44098;-73
2023/07/07 00:16:10;;;;;;;2.30;2.30;;;22.90;68.60;;;;;;5069319;28;43966;-74
2023/07/07 00:18:38;;;;;;;2.20;2.20;;;22.80;69.20;;;;;;5070205;28;43429;-73
2023/07/07 00:21:06;;;;;;;2.50;2.40;;;22.90;69.00;;;;;;5068864;28;43948;-74
2023/07/07 00:23:37;;;;;;;2.27;2.27;;;22.90;68.50;;;;;;5070411;28;43958;-74
2023/07/07 00:26:07;;;;;;;2.30;2.30;;;23.10;68.20;;;;;;5069889;28;43589;-74
2023/07/07 00:28:35;;;;;;;2.67;2.67;;;23.20;67.70;;;;;;5069608;28;43374;-74
2023/07/07 00:31:04;;;;;;;2.40;2.40;;;23.20;67.70;;;;;;5067973;28;43466;-74
2023/07/07 00:33:33;;;;;;;2.37;2.37;;;23.20;67.90;;;;;;5070379;28;43963;-74
2023/07/07 00:36:01;;;;;;;2.30;2.30;;;23.10;68.10;;;;;;5069076;28;44794;-74
2023/07/07 00:38:30;;;;;;;2.27;2.27;;;23.00;68.60;;;;;;5067942;28;43969;-76
2023/07/07 00:41:00;;;;;;;2.30;2.30;;;22.90;68.60;;;;;;5069361;28;43368;-75
2023/07/07 00:43:28;;;;;;;2.33;2.33;;;22.90;68.80;;;;;;5070402;28;43316;-73
2023/07/07 00:45:58;;;;;;;2.10;2.10;;;22.80;68.90;;;;;;5068068;28;45615;-74
2023/07/07 00:48:27;;;;;;;2.10;2.10;;;22.80;69.40;;;;;;5069603;28;43394;-74
2023/07/07 00:51:09;;;;;;;2.13;2.13;;;22.70;69.50;;;;;;5069284;28;43449;-74
2023/07/07 00:53:38;;;;;;;2.30;2.10;;;22.70;69.50;;;;;;5068150;28;43406;-74
2023/07/07 00:56:07;;;;;;;2.20;2.20;;;22.70;69.60;;;;;;5064189;28;46001;-74
2023/07/07 00:58:36;;;;;;;2.30;2.20;;;22.60;69.70;;;;;;5069617;28;43447;-75
2023/07/07 01:01:07;;;;;;;2.60;2.60;;;22.60;70.00;;;;;;5068188;28;43397;-74
2023/07/07 01:03:37;;;;;;;2.07;2.07;;;22.70;69.70;;;;;;5060852;28;43422;-74
2023/07/07 01:06:07;;;;;;;2.57;2.50;;;22.70;69.10;;;;;;5065184;28;45569;-73
2023/07/07 01:08:35;;;;;;;2.20;2.20;;;22.90;68.70;;;;;;5067327;28;44908;-73
2023/07/07 01:11:03;;;;;;;2.17;2.17;;;23.00;68.20;;;;;;5068652;28;44002;-74
2023/07/07 01:13:31;;;;;;;2.40;2.30;;;23.10;68.10;;;;;;5067845;28;43961;-75
2023/07/07 01:16:01;;;;;;;2.40;2.40;;;23.00;68.20;;;;;;5067792;28;46297;-75
2023/07/07 01:18:36;;;;;;;2.10;2.10;;;22.90;68.40;;;;;;5072992;28;44977;-75
2023/07/07 01:21:09;;;;;;;2.27;2.27;;;22.90;68.70;;;;;;5084567;28;43343;-75
2023/07/07 01:23:56;;;;;;;2.10;2.10;;;22.90;69.00;;;;;;5069538;28;43444;-75
2023/07/07 01:26:37;;;;;;;1.93;1.93;;;22.80;69.10;;;;;;5066846;28;45673;-74
2023/07/07 01:29:15;;;;;;;2.30;2.30;;;22.70;69.30;;;;;;5076905;28;44440;-75
2023/07/07 01:31:46;;;;;;;2.10;2.10;;;22.70;69.60;;;;;;5068684;28;43333;-74
2023/07/07 01:34:16;;;;;;;1.93;1.93;;;22.60;69.50;;;;;;5067304;28;43589;-74
2023/07/07 01:36:44;;;;;;;2.03;2.03;;;22.60;69.60;;;;;;5066803;28;45736;-75
2023/07/07 01:39:12;;;;;;;2.30;2.30;;;22.60;69.60;;;;;;5068800;28;44031;-74
2023/07/07 01:41:45;;;;;;;2.17;2.07;;;22.50;70.00;;;;;;5068124;28;43495;-74
2023/07/07 01:44:15;;;;;;;2.40;2.30;;;22.60;69.80;;;;;;5067558;28;43472;-75
2023/07/07 01:46:45;;;;;;;2.13;2.13;;;22.70;69.40;;;;;;5065122;28;43575;-75
2023/07/07 01:49:16;;;;;;;2.30;2.10;;;22.80;68.90;;;;;;5068212;28;43418;-75
2023/07/07 01:51:46;;;;;;;2.10;2.10;;;22.90;68.50;;;;;;5067508;28;43481;-75
2023/07/07 01:54:14;;;;;;;2.00;2.00;;;22.90;68.70;;;;;;5067360;28;43501;-75
2023/07/07 01:56:43;;;;;;;2.57;2.37;;;22.80;68.70;;;;;;5068300;28;43579;-74
2023/07/07 01:59:11;;;;;;;2.50;2.30;;;22.80;68.90;;;;;;5068469;28;43421;-75
2023/07/07 02:01:39;;;;;;;1.87;1.87;;;22.70;69.30;;;;;;5066615;28;43839;-75
2023/07/07 02:04:08;;;;;;;2.00;2.00;;;22.70;69.30;;;;;;5067497;28;43525;-75
2023/07/07 02:06:36;;;;;;;2.00;2.00;;;22.70;69.50;;;;;;5067829;28;43583;-75
2023/07/07 02:09:06;;;;;;;1.93;1.93;;;22.60;69.50;;;;;;5067798;28;43469;-74
2023/07/07 02:11:34;;;;;;;2.47;2.37;;;22.60;70.00;;;;;;5066470;28;43948;-77
2023/07/07 02:14:02;;;;;;;2.30;2.30;;;22.60;70.80;;;;;;5068023;28;43404;-74
2023/07/07 02:16:30;;;;;;;2.07;2.07;;;22.60;70.00;;;;;;5083289;28;45829;-75
2023/07/07 02:18:58;;;;;;;2.23;2.13;;;22.50;69.90;;;;;;5066744;28;44431;-75
2023/07/07 02:21:28;;;;;;;1.90;1.90;;;22.50;69.90;;;;;;5067482;28;44014;-75
2023/07/07 02:23:56;;;;;;;2.10;2.10;;;22.50;70.30;;;;;;5066349;28;43514;-75
2023/07/07 02:26:24;;;;;;;2.10;2.10;;;22.50;70.10;;;;;;5066787;28;45529;-75
2023/07/07 02:28:52;;;;;;;2.30;2.30;;;22.60;69.60;;;;;;5068262;28;43384;-75
2023/07/07 02:31:24;;;;;;;1.90;1.90;;;22.70;69.30;;;;;;5061541;28;44019;-75
2023/07/07 02:33:53;;;;;;;2.00;1.93;;;22.90;68.90;;;;;;5067722;28;43581;-74
2023/07/07 02:36:21;;;;;;;1.90;1.90;;;22.90;68.40;;;;;;5067801;28;45215;-74
2023/07/07 02:38:52;;;;;;;2.13;2.07;;;22.90;68.60;;;;;;5068090;28;43443;-74
2023/07/07 02:41:20;;;;;;;2.40;2.20;;;22.90;68.70;;;;;;5067148;28;44499;-74
2023/07/07 02:43:48;;;;;;;2.00;2.00;;;22.80;69.00;;;;;;5067674;28;43335;-73
2023/07/07 02:46:19;;;;;;;2.00;2.00;;;22.70;69.10;;;;;;5066174;28;45439;-75
2023/07/07 02:48:47;;;;;;;2.10;2.10;;;22.70;69.30;;;;;;5066427;28;43386;-74
2023/07/07 02:51:15;;;;;;;2.00;2.00;;;22.70;69.40;;;;;;5066204;28;43699;-74
2023/07/07 02:53:43;;;;;;;1.90;1.90;;;22.60;69.40;;;;;;5068285;28;43433;-74
2023/07/07 02:56:12;;;;;;;1.90;1.90;;;22.50;69.80;;;;;;5065982;28;43972;-74
2023/07/07 02:58:41;;;;;;;1.90;1.90;;;22.60;69.80;;;;;;5060981;28;45663;-74
2023/07/07 03:01:10;;;;;;;1.90;1.90;;;22.60;69.90;;;;;;5057858;28;43896;-74
2023/07/07 03:03:39;;;;;;;2.03;2.03;;;22.50;69.70;;;;;;5066472;28;43892;-74
2023/07/07 03:06:09;;;;;;;2.03;2.03;;;22.50;70.10;;;;;;5065903;28;45400;-74
2023/07/07 03:08:37;;;;;;;1.93;1.90;;;22.50;70.20;;;;;;5067459;28;43434;-74
2023/07/07 03:11:06;;;;;;;2.00;2.00;;;22.50;69.60;;;;;;5066269;28;43422;-74
2023/07/07 03:13:37;;;;;;;2.00;2.00;;;22.60;69.30;;;;;;5062436;28;43418;-74
2023/07/07 03:16:08;;;;;;;2.07;2.07;;;22.80;68.80;;;;;;5065872;28;43968;-74
2023/07/07 03:18:37;;;;;;;1.90;1.90;;;22.90;68.60;;;;;;5065251;28;43390;-74
2023/07/07 03:21:08;;;;;;;2.13;2.13;;;22.80;68.60;;;;;;5065760;28;44504;-74
2023/07/07 03:23:37;;;;;;;1.87;1.87;;;22.80;68.80;;;;;;5065341;28;43490;-76
2023/07/07 03:26:08;;;;;;;2.00;2.00;;;22.70;69.10;;;;;;5065204;28;45430;-74
2023/07/07 03:28:38;;;;;;;1.90;1.90;;;22.70;69.30;;;;;;5060285;28;44618;-74
2023/07/07 03:31:11;;;;;;;1.90;1.90;;;22.70;69.40;;;;;;5066000;28;43482;-76
2023/07/07 03:33:43;;;;;;;2.13;2.13;;;22.60;69.50;;;;;;5066275;28;43478;-74
2023/07/07 03:36:12;;;;;;;2.10;2.10;;;22.60;69.60;;;;;;5069635;28;45444;-74
2023/07/07 03:38:41;;;;;;;1.80;1.80;;;22.50;69.90;;;;;;5070840;28;43390;-75
2023/07/07 03:41:13;;;;;;;2.10;2.10;;;22.50;69.70;;;;;;5070019;28;43447;-74
2023/07/07 03:43:45;;;;;;;1.80;1.80;;;22.50;69.90;;;;;;5069637;28;44161;-75
2023/07/07 03:46:15;;;;;;;2.00;2.00;;;22.50;69.90;;;;;;5069042;28;45994;-74
2023/07/07 03:48:44;;;;;;;2.50;2.30;;;22.50;70.30;;;;;;5069228;28;44699;-75
2023/07/07 03:51:12;;;;;;;4.43;2.53;;;22.50;70.20;;;;;;5070596;28;43406;-75
2023/07/07 03:53:42;;;;;;;5.57;3.33;;;22.50;69.60;;;;;;5069471;28;44071;-75
2023/07/07 03:56:10;;;;;;;10.40;3.70;;;22.60;69.20;;;;;;5085929;28;46005;-75
2023/07/07 03:58:38;;;;;;;5.20;3.57;;;22.80;68.70;;;;;;5068926;28;44597;-75
2023/07/07 04:01:10;;;;;;;11.33;3.63;;;22.90;68.30;;;;;;5070133;28;43398;-74
2023/07/07 04:03:38;;;;;;;5.37;3.80;;;22.90;68.50;;;;;;5067186;28;43354;-74
2023/07/07 04:06:10;;;;;;;7.13;4.00;;;22.90;68.70;;;;;;5062191;28;46181;-74
2023/07/07 04:08:38;;;;;;;12.83;5.00;;;22.80;68.90;;;;;;5064244;28;43336;-74
2023/07/07 04:11:08;;;;;;;9.43;4.20;;;22.70;69.10;;;;;;5068757;28;43374;-75
2023/07/07 04:13:37;;;;;;;8.17;4.37;;;22.70;69.10;;;;;;5064853;28;43541;-75
2023/07/07 04:16:08;;;;;;;7.70;4.40;;;22.70;69.40;;;;;;5069585;28;43773;-75
2023/07/07 04:18:36;;;;;;;10.50;4.87;;;22.60;69.30;;;;;;5070100;28;43438;-75
2023/07/07 04:21:06;;;;;;;12.03;5.00;;;22.60;69.80;;;;;;5068428;28;43498;-75
2023/07/07 04:23:35;;;;;;;9.73;4.43;;;22.50;69.70;;;;;;5068104;28;44141;-75
2023/07/07 04:26:03;;;;;;;13.10;4.77;;;22.50;69.60;;;;;;5069775;28;43869;-74
2023/07/07 04:28:31;;;;;;;11.87;5.03;;;22.50;69.70;;;;;;5070084;28;43442;-74
2023/07/07 04:30:59;;;;;;;10.87;4.90;;;22.50;69.60;;;;;;5068720;28;43434;-74
2023/07/07 04:33:30;;;;;;;13.43;5.57;;;22.40;70.00;;;;;;5068726;28;43564;-74
2023/07/07 04:35:59;;;;;;;12.53;5.37;;;22.50;69.90;;;;;;5069642;28;43594;-75
2023/07/07 04:38:31;;;;;;;11.80;5.47;;;22.60;69.30;;;;;;5069681;28;43435;-76
2023/07/07 04:41:07;;;;;;;11.83;5.30;;;22.70;68.80;;;;;;5069540;28;43937;-74
2023/07/07 04:43:35;;;;;;;14.60;6.07;;;22.80;68.30;;;;;;5068561;28;44101;-74
2023/07/07 04:46:03;;;;;;;9.77;5.77;;;22.90;68.30;;;;;;5068764;28;43608;-75
2023/07/07 04:48:32;;;;;;;9.03;5.53;;;22.80;68.10;;;;;;5068884;28;43403;-74
2023/07/07 04:51:01;;;;;;;10.67;5.67;;;22.80;68.50;;;;;;5069404;28;43500;-74
2023/07/07 04:53:30;;;;;;;12.13;5.63;;;22.70;69.00;;;;;;5069959;28;44083;-74
2023/07/07 04:56:01;;;;;;;10.87;5.40;;;22.70;68.90;;;;;;5067725;28;47132;-74
2023/07/07 04:58:30;;;;;;;12.17;5.43;;;22.70;69.10;;;;;;5069748;28;43397;-74
2023/07/07 05:01:06;;;;;;;9.27;5.10;;;22.60;69.00;;;;;;5068229;28;43413;-74
2023/07/07 05:03:35;;;;;;;10.37;5.53;;;22.60;69.30;;;;;;5069769;28;43479;-74
2023/07/07 05:06:03;;;;;;;13.67;5.80;;;22.50;69.60;;;;;;5067206;28;45670;-74
2023/07/07 05:08:32;;;;;;;11.50;5.47;;;22.50;69.60;;;;;;5069039;28;43453;-74
2023/07/07 05:11:00;;;;;;;9.40;5.13;;;22.50;69.60;;;;;;5068943;28;43494;-74
2023/07/07 05:13:28;;;;;;;11.57;5.63;;;22.50;69.30;;;;;;5069826;28;43984;-74
2023/07/07 05:16:00;;;;;;;10.23;5.33;;;22.40;69.80;;;;;;5068656;28;43827;-74
2023/07/07 05:18:28;;;;;;;12.40;5.90;;;22.50;69.70;;;;;;5066671;28;43502;-74
2023/07/07 05:20:58;;;;;;;10.57;5.40;;;22.60;69.20;;;;;;5057763;28;43377;-74
2023/07/07 05:23:28;;;;;;;8.57;5.00;;;22.70;68.70;;;;;;5063800;28;43346;-74
2023/07/07 05:25:56;;;;;;;8.70;5.00;;;22.80;68.40;;;;;;5068897;28;43603;-74
2023/07/07 05:28:24;;;;;;;7.73;5.00;;;22.80;68.40;;;;;;5069270;28;43393;-74
2023/07/07 05:30:52;;;;;;;8.43;4.60;;;22.80;68.50;;;;;;5069034;28;43376;-74
2023/07/07 05:33:20;;;;;;;7.23;4.70;;;22.70;68.80;;;;;;5069021;28;43458;-74
2023/07/07 05:35:48;;;;;;;8.50;5.20;;;22.70;69.10;;;;;;5067362;28;45966;-74
2023/07/07 05:38:18;;;;;;;10.17;5.60;;;22.60;69.20;;;;;;5068887;28;43945;-74
2023/07/07 05:40:47;;;;;;;10.17;4.97;;;22.60;69.20;;;;;;5062375;28;44052;-74
2023/07/07 05:43:15;;;;;;;8.50;4.60;;;22.60;69.30;;;;;;5069323;28;43464;-74
2023/07/07 05:45:43;;;;;;;8.60;4.70;;;22.50;69.20;;;;;;5068375;28;43694;-74
2023/07/07 05:48:11;;;;;;;7.43;4.63;;;22.50;69.60;;;;;;5068688;28;43490;-73
2023/07/07 05:50:39;;;;;;;6.70;4.63;;;22.50;69.70;;;;;;5068827;28;43398;-74
2023/07/07 05:53:07;;;;;;;5.60;4.17;;;22.50;69.70;;;;;;5067165;28;43453;-74
2023/07/07 05:55:36;;;;;;;7.87;4.77;;;22.40;69.40;;;;;;5066246;28;46144;-73
2023/07/07 05:58:05;;;;;;;4.93;4.43;;;22.40;69.80;;;;;;5067338;28;43399;-74
2023/07/07 06:00:34;;;;;;;7.93;4.60;;;22.40;69.80;;;;;;5068294;28;43399;-74
2023/07/07 06:03:02;;;;;;;7.97;4.70;;;22.50;69.40;;;;;;5068652;28;43339;-74
2023/07/07 06:05:30;;;;;;;7.23;4.50;;;22.60;69.10;;;;;;5068296;28;43607;-74
2023/07/07 06:07:58;;;;;;;6.90;4.60;;;22.70;68.50;;;;;;5066389;28;44749;-74
2023/07/07 06:10:26;;;;;;;6.73;4.90;;;22.80;68.30;;;;;;5068650;28;43292;-74
2023/07/07 06:12:55;;;;;;;4.90;4.07;;;22.80;68.30;;;;;;5066967;28;43481;-74
2023/07/07 06:15:23;;;;;;;5.37;4.17;;;22.80;68.40;;;;;;5068631;28;43595;-74
2023/07/07 06:17:51;;;;;;;5.93;4.30;;;22.70;68.60;;;;;;5066603;28;43551;-75
2023/07/07 06:20:19;;;;;;;4.90;4.20;;;22.60;69.00;;;;;;5066877;28;43457;-74
2023/07/07 06:22:47;;;;;;;6.27;4.47;;;22.60;69.70;;;;;;5068616;28;43335;-73
2023/07/07 06:25:15;;;;;;;5.57;4.00;;;22.60;69.10;;;;;;5068022;28;43555;-74
2023/07/07 06:27:43;;;;;;;4.53;3.97;;;22.50;69.00;;;;;;5068236;28;43785;-74
2023/07/07 06:30:13;;;;;;;4.37;3.50;;;22.50;69.60;;;;;;5068250;28;43453;-74
2023/07/07 06:32:41;;;;;;;5.03;4.00;;;22.50;69.60;;;;;;5068689;28;43483;-74
2023/07/07 06:35:09;;;;;;;4.30;3.70;;;22.50;69.60;;;;;;5068152;28;44109;-73
2023/07/07 06:37:37;;;;;;;4.10;3.70;;;22.40;69.50;;;;;;5066452;28;45054;-74
2023/07/07 06:40:06;;;;;;;5.67;4.17;;;22.40;69.50;;;;;;5068082;28;43431;-75
2023/07/07 06:42:34;;;;;;;4.17;3.77;;;22.40;70.00;;;;;;5068070;28;43375;-74
2023/07/07 06:45:08;;;;;;;5.03;3.67;;;22.50;69.60;;;;;;5066518;28;45708;-75
2023/07/07 06:47:38;;;;;;;5.37;3.77;;;22.60;69.20;;;;;;5066380;28;45908;-74
2023/07/07 06:50:07;;;;;;;4.83;4.00;;;22.70;68.70;;;;;;5068069;28;43375;-74
2023/07/07 06:52:35;;;;;;;3.83;3.50;;;22.80;68.50;;;;;;5066728;28;43487;-75
2023/07/07 06:55:04;;;;;;;4.87;3.93;;;22.80;68.40;;;;;;5066485;28;45665;-73
2023/07/07 06:57:32;;;;;;;3.40;3.20;;;22.70;68.50;;;;;;5066372;28;44427;-74
2023/07/07 06:59:59;;;;;;;3.57;3.27;;;22.70;68.70;;;;;;5068078;28;43950;-74
2023/07/07 07:02:27;;;;;;;3.70;3.40;;;22.60;69.10;;;;;;5067507;28;43380;-73
2023/07/07 07:04:57;;;;;;;3.63;3.43;;;22.60;69.10;;;;;;5065734;28;45691;-74
2023/07/07 07:07:25;;;;;;;3.77;3.40;;;22.50;69.20;;;;;;5066320;28;44399;-74
2023/07/07 07:09:53;;;;;;;3.97;3.40;;;22.50;69.20;;;;;;5071492;28;43554;-74
2023/07/07 07:12:21;;;;;;;3.90;3.50;;;22.40;69.40;;;;;;5069178;28;43352;-74
2023/07/07 07:14:49;;;;;;;3.80;3.50;;;22.40;69.80;;;;;;5070665;28;43689;-73
2023/07/07 07:17:17;;;;;;;4.00;3.70;;;22.40;69.70;;;;;;5069338;28;44976;-74
2023/07/07 07:19:45;;;;;;;3.20;3.10;;;22.40;69.80;;;;;;5069926;28;43418;-74
2023/07/07 07:22:15;;;;;;;4.60;3.50;;;22.40;69.50;;;;;;5069612;28;43391;-73
2023/07/07 07:24:43;;;;;;;4.17;3.77;;;22.30;70.00;;;;;;5068998;28;45908;-74
2023/07/07 07:27:11;;;;;;;4.03;3.63;;;22.40;70.00;;;;;;5071027;28;43394;-74
2023/07/07 07:29:39;;;;;;;4.03;3.73;;;22.40;69.50;;;;;;5069522;28;43351;-74
2023/07/07 07:32:08;;;;;;;4.03;3.63;;;22.50;69.00;;;;;;5071435;28;43368;-74
2023/07/07 07:34:36;;;;;;;3.13;2.90;;;22.70;68.80;;;;;;5070656;28;43874;-74
2023/07/07 07:37:04;;;;;;;4.00;3.60;;;22.80;68.50;;;;;;5070876;28;43394;-74
2023/07/07 07:39:34;;;;;;;4.10;3.80;;;22.80;68.60;;;;;;5070637;28;43453;-73
2023/07/07 07:42:02;;;;;;;3.83;3.43;;;22.70;68.60;;;;;;5069561;28;43605;-74
2023/07/07 07:44:30;;;;;;;3.20;3.10;;;22.60;68.80;;;;;;5070252;28;43799;-73
2023/07/07 07:46:58;;;;;;;3.60;3.30;;;22.60;69.20;;;;;;5070408;28;43429;-74
2023/07/07 07:49:27;;;;;;;3.67;3.23;;;22.60;69.20;;;;;;5069422;28;43379;-74
2023/07/07 07:51:55;;;;;;;3.70;3.27;;;22.50;69.30;;;;;;5071070;28;43408;-74
2023/07/07 07:54:24;;;;;;;3.50;3.40;;;22.50;69.30;;;;;;5070217;28;43749;-74
2023/07/07 07:56:53;;;;;;;3.17;2.90;;;22.40;69.70;;;;;;5069997;28;43829;-74
2023/07/07 07:59:21;;;;;;;3.33;3.10;;;22.40;69.80;;;;;;5070573;28;43405;-74
2023/07/07 08:01:49;;;;;;;3.10;2.93;;;22.40;69.80;;;;;;5070701;28;43521;-75
2023/07/07 08:04:18;;;;;;;2.93;2.73;;;22.40;69.70;;;;;;5069661;28;43607;-74
2023/07/07 08:06:46;;;;;;;3.27;3.07;;;22.30;69.40;;;;;;5069595;28;43478;-74
2023/07/07 08:09:14;;;;;;;3.30;3.00;;;22.30;70.30;;;;;;5068859;28;43560;-75
2023/07/07 08:12:00;;;;;;;3.10;2.90;;;22.30;70.10;;;;;;5070996;28;43498;-74
2023/07/07 08:14:31;;;;;;;3.47;3.27;;;22.50;69.50;;;;;;5064081;28;43587;-74
2023/07/07 08:17:02;;;;;;;3.10;2.90;;;22.60;69.00;;;;;;5070438;28;43938;-73
2023/07/07 08:19:31;;;;;;;3.67;3.37;;;22.70;68.70;;;;;;5068097;28;43635;-74
2023/07/07 08:21:59;;;;;;;3.40;3.10;;;22.70;68.60;;;;;;5070398;28;43466;-75
2023/07/07 08:24:27;;;;;;;2.90;2.77;;;22.70;68.70;;;;;;5069677;28;43885;-73
2023/07/07 08:26:57;;;;;;;2.80;2.60;;;22.70;68.80;;;;;;5070127;28;43439;-74
2023/07/07 08:29:25;;;;;;;2.83;2.73;;;22.60;69.20;;;;;;5070046;28;43477;-74
2023/07/07 08:31:54;;;;;;;2.93;2.73;;;22.50;69.30;;;;;;5069063;28;43419;-74
2023/07/07 08:34:22;;;;;;;2.67;2.57;;;22.50;69.40;;;;;;5069155;28;43759;-72
2023/07/07 08:36:49;;;;;;;3.07;2.90;;;22.40;69.10;;;;;;5069542;28;43472;-74
2023/07/07 08:39:18;;;;;;;3.00;2.80;;;22.40;69.20;;;;;;5068319;28;43369;-74
2023/07/07 08:41:51;;;;;;;2.80;2.70;;;22.40;70.00;;;;;;5064678;28;43638;-75
2023/07/07 08:44:23;;;;;;;2.90;2.70;;;22.40;69.90;;;;;;5069620;28;43619;-74
2023/07/07 08:47:07;;;;;;;3.13;3.00;;;22.40;69.80;;;;;;5067918;28;44727;-74
2023/07/07 08:49:38;;;;;;;2.93;2.83;;;22.30;69.50;;;;;;5069879;28;43414;-74
2023/07/07 08:52:16;;;;;;;3.20;3.00;;;22.30;70.10;;;;;;5070285;28;43518;-75
2023/07/07 08:54:47;;;;;;;2.70;2.60;;;22.30;70.00;;;;;;5069216;28;43594;-74
2023/07/07 08:57:15;;;;;;;2.80;2.70;;;22.40;69.60;;;;;;5068695;28;43455;-75
2023/07/07 08:59:50;;;;;;;2.90;2.80;;;22.50;69.30;;;;;;5069573;28;44673;-74
2023/07/07 09:02:26;;;;;;;2.93;2.83;;;22.60;68.80;;;;;;5069645;28;43419;-73
2023/07/07 09:04:57;;;;;;;2.90;2.70;;;22.70;68.70;;;;;;5066158;28;43690;-75
2023/07/07 09:07:43;;;;;;;2.60;2.50;;;22.70;68.70;;;;;;5067746;28;44895;-75
2023/07/07 09:10:26;;;;;;;2.57;2.47;;;22.60;68.70;;;;;;5069267;28;43423;-73
2023/07/07 09:12:56;;;;;;;2.80;2.60;;;22.50;69.20;;;;;;5064463;28;43419;-74
2023/07/07 09:15:26;;;;;;;2.90;2.80;;;22.50;69.20;;;;;;5068663;28;43591;-73
2023/07/07 09:17:55;;;;;;;2.97;2.80;;;22.50;69.30;;;;;;5069398;28;43371;-73
2023/07/07 09:20:24;;;;;;;2.43;2.33;;;22.50;69.30;;;;;;5068979;28;43921;-73
2023/07/07 09:22:54;;;;;;;2.43;2.33;;;22.40;69.70;;;;;;5067977;28;43704;-74
2023/07/07 09:25:23;;;;;;;2.73;2.63;;;22.40;69.80;;;;;;5068951;28;43621;-74
2023/07/07 09:27:56;;;;;;;2.43;2.33;;;22.40;69.90;;;;;;5068858;28;43985;-73
2023/07/07 09:30:27;;;;;;;2.50;2.40;;;22.40;69.70;;;;;;5067584;28;43387;-73
2023/07/07 09:32:57;;;;;;;2.70;2.60;;;22.30;69.40;;;;;;5069625;28;43466;-74
2023/07/07 09:35:27;;;;;;;2.17;2.17;;;22.30;70.20;;;;;;5068086;28;43925;-74
2023/07/07 09:38:00;;;;;;;2.73;2.63;;;22.30;70.10;;;;;;5068863;28;43398;-74
2023/07/07 09:40:31;;;;;;;2.60;2.50;;;22.40;69.50;;;;;;5068808;28;43422;-73
2023/07/07 09:43:02;;;;;;;2.20;2.10;;;22.60;69.20;;;;;;5069169;28;43337;-73
2023/07/07 09:45:36;;;;;;;2.43;2.33;;;22.70;69.00;;;;;;5068473;28;44362;-74
2023/07/07 09:48:12;;;;;;;2.87;2.70;;;22.70;68.80;;;;;;5064706;28;44429;-73
2023/07/07 09:50:44;;;;;;;2.20;2.10;;;22.70;68.80;;;;;;5068806;28;43422;-73
2023/07/07 09:53:15;;;;;;;2.73;2.63;;;22.60;68.70;;;;;;5067030;28;43381;-74
2023/07/07 09:55:51;;;;;;;2.57;2.47;;;22.50;69.40;;;;;;5066774;28;45522;-75
2023/07/07 09:58:21;;;;;;;2.27;2.17;;;22.50;69.50;;;;;;5067174;28;44402;-75
2023/07/07 10:00:53;;;;;;;2.37;2.27;;;22.50;69.40;;;;;;5067011;28;43416;-73
2023/07/07 10:03:24;;;;;;;2.50;2.40;;;22.40;69.10;;;;;;5081982;28;43565;-73
2023/07/07 10:05:52;;;;;;;2.27;2.17;;;22.40;69.30;;;;;;5068172;28;43745;-73
2023/07/07 10:08:20;;;;;;;2.30;2.20;;;22.40;70.10;;;;;;5068529;28;43470;-76
2023/07/07 10:10:50;;;;;;;1.93;1.93;;;22.30;69.90;;;;;;5067086;28;43431;-75
2023/07/07 10:13:18;;;;;;;2.53;2.43;;;22.40;69.70;;;;;;5068727;28;43488;-74
2023/07/07 10:15:49;;;;;;;2.20;2.20;;;22.30;69.40;;;;;;5067959;28;43844;-73
2023/07/07 10:18:20;;;;;;;2.53;2.43;;;22.30;70.10;;;;;;5066824;28;45017;-76
2023/07/07 10:20:48;;;;;;;2.20;2.10;;;22.30;70.20;;;;;;5067876;28;43335;-77
2023/07/07 10:23:16;;;;;;;2.17;2.10;;;22.30;69.90;;;;;;5068052;28;43915;-74
2023/07/07 10:25:46;;;;;;;2.40;2.30;;;22.30;69.50;;;;;;5066340;28;45376;-73
2023/07/07 10:28:16;;;;;;;2.53;2.43;;;22.30;69.60;;;;;;5068075;28;43447;-73
2023/07/07 10:30:44;;;;;;;2.33;2.23;;;22.30;70.50;;;;;;5066598;28;43457;-73
2023/07/07 10:33:14;;;;;;;2.63;2.53;;;22.30;70.00;;;;;;5068594;28;43363;-76
2023/07/07 10:35:43;;;;;;;2.37;2.27;;;22.40;69.70;;;;;;5061269;28;43761;-75
2023/07/07 10:38:12;;;;;;;2.40;2.30;;;22.60;69.40;;;;;;5061713;28;43496;-75
2023/07/07 10:40:41;;;;;;;2.13;2.10;;;22.70;69.00;;;;;;5061503;28;43380;-74
2023/07/07 10:43:12;;;;;;;2.50;2.40;;;22.70;68.70;;;;;;5068977;28;43450;-75
2023/07/07 10:45:43;;;;;;;2.40;2.30;;;22.70;68.60;;;;;;5071427;28;43743;-75
2023/07/07 10:48:12;;;;;;;1.97;1.97;;;22.70;68.50;;;;;;5071503;28;43522;-74
2023/07/07 10:50:50;;;;;;;2.30;2.20;;;22.60;69.20;;;;;;5071108;28;43448;-74
2023/07/07 10:53:27;;;;;;;2.50;2.40;;;22.60;69.30;;;;;;5068246;28;43591;-75
2023/07/07 10:56:04;;;;;;;2.00;2.00;;;22.50;69.20;;;;;;5070627;28;43667;-74
2023/07/07 10:58:43;;;;;;;2.03;2.03;;;22.50;69.00;;;;;;5070659;28;43470;-74
2023/07/07 11:01:17;;;;;;;2.40;2.00;;;22.50;69.50;;;;;;5064590;28;43450;-74
2023/07/07 11:03:57;;;;;;;2.00;2.00;;;22.40;69.80;;;;;;5065535;28;43424;-75
2023/07/07 11:06:31;;;;;;;2.07;1.97;;;22.40;69.60;;;;;;5069219;28;45864;-74
2023/07/07 11:09:08;;;;;;;2.10;2.10;;;22.40;69.40;;;;;;5070197;28;43502;-74
2023/07/07 11:11:39;;;;;;;2.50;2.40;;;22.40;69.40;;;;;;5069738;28;44025;-74
2023/07/07 11:14:21;;;;;;;2.30;2.20;;;22.30;70.10;;;;;;5069768;28;43409;-74
2023/07/07 11:16:57;;;;;;;2.20;2.10;;;22.40;69.90;;;;;;5066852;28;43592;-73
2023/07/07 11:19:35;;;;;;;1.80;1.80;;;22.50;69.50;;;;;;5070746;28;43404;-75
2023/07/07 11:22:10;;;;;;;2.13;2.03;;;22.60;69.10;;;;;;5070793;28;43549;-74
2023/07/07 11:24:41;;;;;;;2.00;1.97;;;22.70;68.90;;;;;;5071702;28;43496;-74
2023/07/07 11:27:45;;;;;;;2.13;2.13;;;22.70;68.80;;;;;;5070794;28;43563;-74
2023/07/07 11:30:18;;;;;;;1.87;1.87;;;22.60;68.60;;;;;;5070516;28;43425;-74
2023/07/07 11:32:51;;;;;;;2.07;2.07;;;22.60;69.10;;;;;;5066971;28;43420;-74
2023/07/07 11:35:34;;;;;;;1.97;1.87;;;22.50;69.40;;;;;;5071116;28;43462;-75
2023/07/07 11:38:13;;;;;;;1.70;1.70;;;22.50;69.40;;;;;;5070160;28;44059;-75
2023/07/07 11:40:53;;;;;;;2.17;2.17;;;22.40;69.00;;;;;;5069093;28;44761;-74
2023/07/07 11:43:36;;;;;;;1.97;1.97;;;22.40;69.10;;;;;;5071249;28;43368;-74
2023/07/07 11:46:12;;;;;;;2.33;2.23;;;22.40;70.00;;;;;;5068444;28;43451;-76
2023/07/07 11:48:45;;;;;;;1.83;1.83;;;22.40;69.70;;;;;;5070406;28;43610;-74
2023/07/07 11:51:22;;;;;;;2.10;2.10;;;22.50;69.60;;;;;;5069413;28;44434;-74
2023/07/07 11:54:02;;;;;;;2.20;2.20;;;22.60;69.30;;;;;;5065273;28;44159;-74
2023/07/07 11:56:39;;;;;;;2.00;2.00;;;22.60;69.30;;;;;;5068862;28;43562;-74
2023/07/07 11:59:13;;;;;;;2.00;2.00;;;22.50;69.50;;;;;;5068924;28;45412;-74
2023/07/07 12:01:43;;;;;;;2.00;1.90;;;22.50;69.60;;;;;;5070343;28;43385;-73
2023/07/07 12:04:14;;;;;;;1.80;1.80;;;22.50;69.40;;;;;;5068752;28;43379;-72
2023/07/07 12:06:45;;;;;;;1.90;1.90;;;22.50;69.20;;;;;;5069222;28;43536;-74
2023/07/07 12:09:19;;;;;;;1.80;1.80;;;22.50;69.10;;;;;;5070323;28;43721;-74
2023/07/07 12:11:50;;;;;;;2.43;2.23;;;22.40;69.80;;;;;;5069784;28;43348;-74
2023/07/07 12:14:26;;;;;;;2.00;2.00;;;22.40;69.90;;;;;;5070348;28;44093;-74
2023/07/07 12:16:55;;;;;;;2.17;2.13;;;22.40;69.60;;;;;;5063751;28;43491;-75
2023/07/07 12:19:30;;;;;;;2.10;2.00;;;22.40;69.30;;;;;;5070155;28;43832;-74
2023/07/07 12:21:59;;;;;;;1.70;1.70;;;22.40;69.80;;;;;;5070153;28;43864;-74
2023/07/07 12:24:32;;;;;;;2.23;2.20;;;22.30;70.10;;;;;;5070172;28;43329;-74
2023/07/07 12:27:08;;;;;;;1.80;1.80;;;22.40;69.80;;;;;;5085818;28;44006;-78
2023/07/07 12:29:37;;;;;;;1.93;1.83;;;22.50;69.50;;;;;;5068637;28;46800;-77
2023/07/07 12:32:07;;;;;;;2.23;2.20;;;22.60;69.10;;;;;;5069414;28;43319;-75
2023/07/07 12:34:36;;;;;;;1.93;1.87;;;22.70;69.00;;;;;;5069106;28;43471;-74
2023/07/07 12:37:06;;;;;;;1.50;1.50;;;22.60;68.80;;;;;;5068780;28;43972;-75
2023/07/07 12:39:36;;;;;;;1.83;1.83;;;22.60;68.70;;;;;;5069859;28;43596;-75
2023/07/07 12:42:05;;;;;;;2.00;2.00;;;22.60;68.70;;;;;;5069368;28;43535;-75
2023/07/07 12:44:34;;;;;;;2.17;2.07;;;22.50;69.60;;;;;;5069660;28;43990;-75
2023/07/07 12:47:17;;;;;;;2.00;2.00;;;22.50;69.60;;;;;;5070149;28;43912;-75
2023/07/07 12:49:51;;;;;;;2.00;2.00;;;22.50;69.40;;;;;;5066421;28;43619;-73
2023/07/07 12:52:19;;;;;;;1.93;1.87;;;22.40;69.10;;;;;;5069687;28;43369;-74
2023/07/07 12:54:53;;;;;;;3.97;2.03;;;22.40;70.00;;;;;;5069261;28;43351;-77
2023/07/07 12:57:23;;;;;;;4.40;2.10;;;22.40;69.90;;;;;;5070048;28;43395;-73
2023/07/07 12:59:52;;;;;;;3.33;1.90;;;22.40;69.80;;;;;;5069578;28;43622;-74
2023/07/07 13:02:21;;;;;;;2.00;2.00;;;22.40;69.50;;;;;;5067825;28;44564;-74